sensor_id;sensor_type;location;lat;lon;timestamp;P1;durP1;ratioP1;P2;durP2;ratioP2
11024;SDS011;22890;51.820;8.682;2023-04-16T00:02:01;47.67;;;26.37;;
11024;SDS011;22890;51.820;8.682;2023-04-16T00:04:28;44.87;;;25.63;;
11024;SDS011;22890;51.820;8.682;2023-04-16T00:06:56;44.20;;;23.93;;
11024;SDS011;22890;51.820;8.682;2023-04-16T00:09:23;48.33;;;24.20;;
11024;SDS011;22890;51.820;8.682;2023-04-16T00:11:50;44.30;;;25.47;;
11024;SDS011;22890;51.820;8.682;2023-04-16T00:14:17;43.37;;;25.00;;
11024;SDS011;22890;51.820;8.682;2023-04-16T00:16:44;43.23;;;24.13;;
11024;SDS011;22890;51.820;8.682;2023-04-16T00:19:11;47.23;;;25.67;;
11024;SDS011;22890;51.820;8.682;2023-04-16T00:21:39;45.90;;;25.13;;
11024;SDS011;22890;51.820;8.682;2023-04-16T00:24:06;41.40;;;23.80;;
11024;SDS011;22890;51.820;8.682;2023-04-16T00:26:33;43.13;;;23.87;;
11024;SDS011;22890;51.820;8.682;2023-04-16T00:29:00;54.53;;;26.23;;
11024;SDS011;22890;51.820;8.682;2023-04-16T00:31:28;39.43;;;23.27;;
11024;SDS011;22890;51.820;8.682;2023-04-16T00:33:56;48.00;;;25.20;;
11024;SDS011;22890;51.820;8.682;2023-04-16T00:36:23;47.17;;;26.17;;
11024;SDS011;22890;51.820;8.682;2023-04-16T00:38:50;48.80;;;24.93;;
11024;SDS011;22890;51.820;8.682;2023-04-16T00:41:17;44.97;;;24.73;;
11024;SDS011;22890;51.820;8.682;2023-04-16T00:43:45;44.40;;;24.00;;
11024;SDS011;22890;51.820;8.682;2023-04-16T00:46:12;43.87;;;23.83;;
11024;SDS011;22890;51.820;8.682;2023-04-16T00:48:39;41.73;;;22.57;;
11024;SDS011;22890;51.820;8.682;2023-04-16T00:51:07;47.80;;;25.10;;
11024;SDS011;22890;51.820;8.682;2023-04-16T00:53:35;44.83;;;26.00;;
11024;SDS011;22890;51.820;8.682;2023-04-16T00:56:03;45.97;;;24.93;;
11024;SDS011;22890;51.820;8.682;2023-04-16T00:58:32;39.27;;;23.90;;
11024;SDS011;22890;51.820;8.682;2023-04-16T01:01:00;45.27;;;26.37;;
11024;SDS011;22890;51.820;8.682;2023-04-16T01:03:36;44.63;;;24.37;;
11024;SDS011;22890;51.820;8.682;2023-04-16T01:06:05;42.83;;;24.03;;
11024;SDS011;22890;51.820;8.682;2023-04-16T01:08:32;41.50;;;25.03;;
11024;SDS011;22890;51.820;8.682;2023-04-16T01:11:00;43.60;;;24.77;;
11024;SDS011;22890;51.820;8.682;2023-04-16T01:13:27;45.40;;;25.20;;
11024;SDS011;22890;51.820;8.682;2023-04-16T01:15:54;44.43;;;24.17;;
11024;SDS011;22890;51.820;8.682;2023-04-16T01:18:22;47.37;;;25.70;;
11024;SDS011;22890;51.820;8.682;2023-04-16T01:20:49;39.50;;;23.83;;
11024;SDS011;22890;51.820;8.682;2023-04-16T01:23:16;37.67;;;24.87;;
11024;SDS011;22890;51.820;8.682;2023-04-16T01:25:46;43.90;;;25.30;;
11024;SDS011;22890;51.820;8.682;2023-04-16T01:28:13;47.23;;;26.90;;
11024;SDS011;22890;51.820;8.682;2023-04-16T01:30:41;42.00;;;24.03;;
11024;SDS011;22890;51.820;8.682;2023-04-16T01:33:44;45.87;;;24.33;;
11024;SDS011;22890;51.820;8.682;2023-04-16T01:36:11;43.70;;;25.67;;
11024;SDS011;22890;51.820;8.682;2023-04-16T01:38:38;43.80;;;25.13;;
11024;SDS011;22890;51.820;8.682;2023-04-16T01:41:05;48.37;;;25.07;;
11024;SDS011;22890;51.820;8.682;2023-04-16T01:43:33;42.40;;;25.90;;
11024;SDS011;22890;51.820;8.682;2023-04-16T01:46:10;40.63;;;25.00;;
11024;SDS011;22890;51.820;8.682;2023-04-16T01:48:39;43.47;;;25.53;;
11024;SDS011;22890;51.820;8.682;2023-04-16T01:51:06;37.50;;;25.00;;
11024;SDS011;22890;51.820;8.682;2023-04-16T01:53:35;42.33;;;25.37;;
11024;SDS011;22890;51.820;8.682;2023-04-16T01:56:02;41.17;;;25.13;;
11024;SDS011;22890;51.820;8.682;2023-04-16T01:58:30;47.03;;;25.37;;
11024;SDS011;22890;51.820;8.682;2023-04-16T02:00:58;41.00;;;25.67;;
11024;SDS011;22890;51.820;8.682;2023-04-16T02:03:26;43.77;;;23.43;;
11024;SDS011;22890;51.820;8.682;2023-04-16T02:05:53;44.80;;;25.63;;
11024;SDS011;22890;51.820;8.682;2023-04-16T02:08:21;40.73;;;25.13;;
11024;SDS011;22890;51.820;8.682;2023-04-16T02:10:48;40.93;;;24.70;;
11024;SDS011;22890;51.820;8.682;2023-04-16T02:13:16;36.60;;;24.03;;
11024;SDS011;22890;51.820;8.682;2023-04-16T02:15:45;42.40;;;24.57;;
11024;SDS011;22890;51.820;8.682;2023-04-16T02:18:15;44.47;;;26.47;;
11024;SDS011;22890;51.820;8.682;2023-04-16T02:20:44;42.07;;;25.33;;
11024;SDS011;22890;51.820;8.682;2023-04-16T02:23:12;36.40;;;23.23;;
11024;SDS011;22890;51.820;8.682;2023-04-16T02:25:44;39.10;;;23.67;;
11024;SDS011;22890;51.820;8.682;2023-04-16T02:28:13;38.57;;;22.93;;
11024;SDS011;22890;51.820;8.682;2023-04-16T02:30:43;45.10;;;25.07;;
11024;SDS011;22890;51.820;8.682;2023-04-16T02:33:11;38.53;;;24.07;;
11024;SDS011;22890;51.820;8.682;2023-04-16T02:35:48;43.87;;;24.77;;
11024;SDS011;22890;51.820;8.682;2023-04-16T02:38:15;39.83;;;25.83;;
11024;SDS011;22890;51.820;8.682;2023-04-16T02:40:41;35.80;;;24.70;;
11024;SDS011;22890;51.820;8.682;2023-04-16T02:43:09;39.47;;;25.23;;
11024;SDS011;22890;51.820;8.682;2023-04-16T02:45:36;39.10;;;24.90;;
11024;SDS011;22890;51.820;8.682;2023-04-16T02:48:03;45.43;;;24.60;;
11024;SDS011;22890;51.820;8.682;2023-04-16T02:50:32;41.73;;;25.40;;
11024;SDS011;22890;51.820;8.682;2023-04-16T02:52:59;43.03;;;24.30;;
11024;SDS011;22890;51.820;8.682;2023-04-16T02:55:26;40.43;;;24.77;;
11024;SDS011;22890;51.820;8.682;2023-04-16T02:57:54;40.63;;;24.33;;
11024;SDS011;22890;51.820;8.682;2023-04-16T03:00:21;42.60;;;24.63;;
11024;SDS011;22890;51.820;8.682;2023-04-16T03:02:48;40.47;;;24.47;;
11024;SDS011;22890;51.820;8.682;2023-04-16T03:05:16;44.07;;;24.77;;
11024;SDS011;22890;51.820;8.682;2023-04-16T03:07:43;38.50;;;24.13;;
11024;SDS011;22890;51.820;8.682;2023-04-16T03:10:10;41.73;;;24.33;;
11024;SDS011;22890;51.820;8.682;2023-04-16T03:12:38;42.90;;;24.50;;
11024;SDS011;22890;51.820;8.682;2023-04-16T03:15:06;41.00;;;23.43;;
11024;SDS011;22890;51.820;8.682;2023-04-16T03:17:33;38.17;;;24.00;;
11024;SDS011;22890;51.820;8.682;2023-04-16T03:20:00;35.87;;;23.37;;
11024;SDS011;22890;51.820;8.682;2023-04-16T03:22:28;35.70;;;22.37;;
11024;SDS011;22890;51.820;8.682;2023-04-16T03:24:55;35.33;;;23.83;;
11024;SDS011;22890;51.820;8.682;2023-04-16T03:27:22;40.93;;;24.73;;
11024;SDS011;22890;51.820;8.682;2023-04-16T03:29:50;37.57;;;23.07;;
11024;SDS011;22890;51.820;8.682;2023-04-16T03:32:17;34.67;;;22.63;;
11024;SDS011;22890;51.820;8.682;2023-04-16T03:34:44;38.03;;;23.43;;
11024;SDS011;22890;51.820;8.682;2023-04-16T03:37:11;41.63;;;22.97;;
11024;SDS011;22890;51.820;8.682;2023-04-16T03:39:39;35.20;;;21.50;;
11024;SDS011;22890;51.820;8.682;2023-04-16T03:42:08;35.97;;;20.70;;
11024;SDS011;22890;51.820;8.682;2023-04-16T03:44:35;31.93;;;22.40;;
11024;SDS011;22890;51.820;8.682;2023-04-16T03:47:02;34.00;;;21.83;;
11024;SDS011;22890;51.820;8.682;2023-04-16T03:49:29;35.27;;;22.10;;
11024;SDS011;22890;51.820;8.682;2023-04-16T03:51:57;31.43;;;21.67;;
11024;SDS011;22890;51.820;8.682;2023-04-16T03:54:25;37.60;;;22.13;;
11024;SDS011;22890;51.820;8.682;2023-04-16T03:57:03;33.20;;;22.07;;
11024;SDS011;22890;51.820;8.682;2023-04-16T03:59:31;32.20;;;21.43;;
11024;SDS011;22890;51.820;8.682;2023-04-16T04:01:58;32.47;;;22.43;;
11024;SDS011;22890;51.820;8.682;2023-04-16T04:04:25;33.20;;;21.87;;
11024;SDS011;22890;51.820;8.682;2023-04-16T04:06:53;35.90;;;21.87;;
11024;SDS011;22890;51.820;8.682;2023-04-16T04:09:21;32.30;;;21.17;;
11024;SDS011;22890;51.820;8.682;2023-04-16T04:11:49;36.43;;;20.47;;
11024;SDS011;22890;51.820;8.682;2023-04-16T04:14:15;30.63;;;20.57;;
11024;SDS011;22890;51.820;8.682;2023-04-16T04:16:42;29.37;;;20.13;;
11024;SDS011;22890;51.820;8.682;2023-04-16T04:19:10;29.97;;;18.53;;
11024;SDS011;22890;51.820;8.682;2023-04-16T04:21:37;30.70;;;19.13;;
11024;SDS011;22890;51.820;8.682;2023-04-16T04:24:04;28.80;;;18.90;;
11024;SDS011;22890;51.820;8.682;2023-04-16T04:26:32;29.67;;;18.73;;
11024;SDS011;22890;51.820;8.682;2023-04-16T04:28:59;26.33;;;18.00;;
11024;SDS011;22890;51.820;8.682;2023-04-16T04:31:28;28.57;;;18.10;;
11024;SDS011;22890;51.820;8.682;2023-04-16T04:33:55;30.97;;;19.30;;
11024;SDS011;22890;51.820;8.682;2023-04-16T04:36:22;32.43;;;19.77;;
11024;SDS011;22890;51.820;8.682;2023-04-16T04:38:50;28.20;;;19.57;;
11024;SDS011;22890;51.820;8.682;2023-04-16T04:41:18;34.00;;;19.83;;
11024;SDS011;22890;51.820;8.682;2023-04-16T04:43:46;30.27;;;19.00;;
11024;SDS011;22890;51.820;8.682;2023-04-16T04:46:14;28.40;;;19.40;;
11024;SDS011;22890;51.820;8.682;2023-04-16T04:48:41;25.60;;;19.27;;
11024;SDS011;22890;51.820;8.682;2023-04-16T04:51:09;31.60;;;19.80;;
11024;SDS011;22890;51.820;8.682;2023-04-16T04:53:36;33.83;;;20.70;;
11024;SDS011;22890;51.820;8.682;2023-04-16T04:56:03;33.57;;;21.70;;
11024;SDS011;22890;51.820;8.682;2023-04-16T04:58:38;32.30;;;22.10;;
11024;SDS011;22890;51.820;8.682;2023-04-16T05:01:05;33.33;;;20.63;;
11024;SDS011;22890;51.820;8.682;2023-04-16T05:03:32;35.10;;;22.90;;
11024;SDS011;22890;51.820;8.682;2023-04-16T05:06:00;32.67;;;21.57;;
11024;SDS011;22890;51.820;8.682;2023-04-16T05:08:27;34.53;;;21.20;;
11024;SDS011;22890;51.820;8.682;2023-04-16T05:10:54;37.20;;;23.23;;
11024;SDS011;22890;51.820;8.682;2023-04-16T05:13:21;36.07;;;23.03;;
11024;SDS011;22890;51.820;8.682;2023-04-16T05:15:48;30.90;;;21.27;;
11024;SDS011;22890;51.820;8.682;2023-04-16T05:18:15;35.33;;;20.73;;
11024;SDS011;22890;51.820;8.682;2023-04-16T05:20:42;31.37;;;20.63;;
11024;SDS011;22890;51.820;8.682;2023-04-16T05:23:08;37.03;;;21.17;;
11024;SDS011;22890;51.820;8.682;2023-04-16T05:25:36;30.03;;;20.40;;
11024;SDS011;22890;51.820;8.682;2023-04-16T05:28:03;35.77;;;21.07;;
11024;SDS011;22890;51.820;8.682;2023-04-16T05:30:30;31.90;;;21.37;;
11024;SDS011;22890;51.820;8.682;2023-04-16T05:32:57;35.40;;;22.10;;
11024;SDS011;22890;51.820;8.682;2023-04-16T05:35:25;35.53;;;21.53;;
11024;SDS011;22890;51.820;8.682;2023-04-16T05:37:52;28.83;;;20.00;;
11024;SDS011;22890;51.820;8.682;2023-04-16T05:40:19;33.07;;;22.10;;
11024;SDS011;22890;51.820;8.682;2023-04-16T05:42:47;34.93;;;21.30;;
11024;SDS011;22890;51.820;8.682;2023-04-16T05:45:14;29.43;;;19.90;;
11024;SDS011;22890;51.820;8.682;2023-04-16T05:47:41;35.70;;;21.83;;
11024;SDS011;22890;51.820;8.682;2023-04-16T05:50:08;34.87;;;22.30;;
11024;SDS011;22890;51.820;8.682;2023-04-16T05:52:35;33.97;;;21.73;;
11024;SDS011;22890;51.820;8.682;2023-04-16T05:55:03;41.53;;;21.63;;
11024;SDS011;22890;51.820;8.682;2023-04-16T05:57:30;35.30;;;22.13;;
11024;SDS011;22890;51.820;8.682;2023-04-16T05:59:58;39.17;;;23.23;;
11024;SDS011;22890;51.820;8.682;2023-04-16T06:02:25;38.10;;;23.30;;
11024;SDS011;22890;51.820;8.682;2023-04-16T06:04:52;34.47;;;21.70;;
11024;SDS011;22890;51.820;8.682;2023-04-16T06:07:19;34.23;;;22.77;;
11024;SDS011;22890;51.820;8.682;2023-04-16T06:09:46;31.63;;;20.23;;
11024;SDS011;22890;51.820;8.682;2023-04-16T06:12:13;32.83;;;21.70;;
11024;SDS011;22890;51.820;8.682;2023-04-16T06:14:41;36.63;;;21.50;;
11024;SDS011;22890;51.820;8.682;2023-04-16T06:17:08;31.90;;;20.73;;
11024;SDS011;22890;51.820;8.682;2023-04-16T06:19:35;30.20;;;21.00;;
11024;SDS011;22890;51.820;8.682;2023-04-16T06:22:02;32.63;;;21.00;;
11024;SDS011;22890;51.820;8.682;2023-04-16T06:24:31;32.70;;;20.07;;
11024;SDS011;22890;51.820;8.682;2023-04-16T06:26:58;33.17;;;21.17;;
11024;SDS011;22890;51.820;8.682;2023-04-16T06:29:25;32.43;;;20.60;;
11024;SDS011;22890;51.820;8.682;2023-04-16T06:32:06;31.20;;;20.90;;
11024;SDS011;22890;51.820;8.682;2023-04-16T06:34:33;30.13;;;20.17;;
11024;SDS011;22890;51.820;8.682;2023-04-16T06:37:00;33.73;;;20.03;;
11024;SDS011;22890;51.820;8.682;2023-04-16T06:39:27;34.73;;;21.40;;
11024;SDS011;22890;51.820;8.682;2023-04-16T06:41:54;34.60;;;22.63;;
11024;SDS011;22890;51.820;8.682;2023-04-16T06:44:22;33.37;;;20.67;;
11024;SDS011;22890;51.820;8.682;2023-04-16T06:46:49;32.67;;;20.90;;
11024;SDS011;22890;51.820;8.682;2023-04-16T06:49:16;32.63;;;21.90;;
11024;SDS011;22890;51.820;8.682;2023-04-16T06:51:43;31.63;;;20.33;;
11024;SDS011;22890;51.820;8.682;2023-04-16T06:54:10;32.70;;;20.10;;
11024;SDS011;22890;51.820;8.682;2023-04-16T06:56:38;30.70;;;21.33;;
11024;SDS011;22890;51.820;8.682;2023-04-16T06:59:04;39.97;;;21.43;;
11024;SDS011;22890;51.820;8.682;2023-04-16T07:01:31;34.53;;;21.00;;
11024;SDS011;22890;51.820;8.682;2023-04-16T07:03:59;30.90;;;21.33;;
11024;SDS011;22890;51.820;8.682;2023-04-16T07:06:27;32.00;;;20.00;;
11024;SDS011;22890;51.820;8.682;2023-04-16T07:08:54;32.47;;;20.37;;
11024;SDS011;22890;51.820;8.682;2023-04-16T07:11:21;30.43;;;20.17;;
11024;SDS011;22890;51.820;8.682;2023-04-16T07:13:48;37.07;;;21.73;;
11024;SDS011;22890;51.820;8.682;2023-04-16T07:16:16;37.13;;;21.13;;
11024;SDS011;22890;51.820;8.682;2023-04-16T07:18:43;31.43;;;20.20;;
11024;SDS011;22890;51.820;8.682;2023-04-16T07:21:11;31.83;;;19.60;;
11024;SDS011;22890;51.820;8.682;2023-04-16T07:23:38;30.27;;;18.87;;
11024;SDS011;22890;51.820;8.682;2023-04-16T07:26:05;33.97;;;20.70;;
11024;SDS011;22890;51.820;8.682;2023-04-16T07:28:32;29.67;;;18.33;;
11024;SDS011;22890;51.820;8.682;2023-04-16T07:30:59;34.83;;;20.33;;
11024;SDS011;22890;51.820;8.682;2023-04-16T07:33:26;32.80;;;20.93;;
11024;SDS011;22890;51.820;8.682;2023-04-16T07:35:53;28.93;;;19.13;;
11024;SDS011;22890;51.820;8.682;2023-04-16T07:38:20;27.03;;;17.73;;
11024;SDS011;22890;51.820;8.682;2023-04-16T07:40:47;26.00;;;17.23;;
11024;SDS011;22890;51.820;8.682;2023-04-16T07:43:14;26.20;;;16.67;;
11024;SDS011;22890;51.820;8.682;2023-04-16T07:45:41;23.90;;;16.83;;
11024;SDS011;22890;51.820;8.682;2023-04-16T07:48:08;29.30;;;17.57;;
11024;SDS011;22890;51.820;8.682;2023-04-16T07:50:35;25.23;;;17.27;;
11024;SDS011;22890;51.820;8.682;2023-04-16T07:53:02;24.53;;;15.83;;
11024;SDS011;22890;51.820;8.682;2023-04-16T07:55:30;25.30;;;16.03;;
11024;SDS011;22890;51.820;8.682;2023-04-16T07:57:58;22.27;;;14.57;;
11024;SDS011;22890;51.820;8.682;2023-04-16T08:00:25;22.73;;;14.80;;
11024;SDS011;22890;51.820;8.682;2023-04-16T08:02:52;22.03;;;15.60;;
11024;SDS011;22890;51.820;8.682;2023-04-16T08:05:19;22.27;;;14.40;;
11024;SDS011;22890;51.820;8.682;2023-04-16T08:07:46;24.13;;;15.17;;
11024;SDS011;22890;51.820;8.682;2023-04-16T08:10:13;22.57;;;14.43;;
11024;SDS011;22890;51.820;8.682;2023-04-16T08:12:41;22.97;;;14.83;;
11024;SDS011;22890;51.820;8.682;2023-04-16T08:15:07;24.00;;;14.10;;
11024;SDS011;22890;51.820;8.682;2023-04-16T08:17:34;21.93;;;14.13;;
11024;SDS011;22890;51.820;8.682;2023-04-16T08:20:03;22.10;;;15.40;;
11024;SDS011;22890;51.820;8.682;2023-04-16T08:22:30;22.37;;;15.00;;
11024;SDS011;22890;51.820;8.682;2023-04-16T08:24:57;25.70;;;15.93;;
11024;SDS011;22890;51.820;8.682;2023-04-16T08:27:24;23.80;;;15.03;;
11024;SDS011;22890;51.820;8.682;2023-04-16T08:29:51;27.23;;;15.07;;
11024;SDS011;22890;51.820;8.682;2023-04-16T08:32:19;25.40;;;15.83;;
11024;SDS011;22890;51.820;8.682;2023-04-16T08:34:47;23.90;;;15.63;;
11024;SDS011;22890;51.820;8.682;2023-04-16T08:37:14;24.90;;;16.53;;
11024;SDS011;22890;51.820;8.682;2023-04-16T08:39:42;22.80;;;14.77;;
11024;SDS011;22890;51.820;8.682;2023-04-16T08:42:17;22.47;;;15.63;;
11024;SDS011;22890;51.820;8.682;2023-04-16T08:44:55;23.47;;;16.60;;
11024;SDS011;22890;51.820;8.682;2023-04-16T08:47:33;24.57;;;16.10;;
11024;SDS011;22890;51.820;8.682;2023-04-16T08:50:04;21.07;;;14.13;;
11024;SDS011;22890;51.820;8.682;2023-04-16T08:52:32;23.47;;;15.17;;
11024;SDS011;22890;51.820;8.682;2023-04-16T08:55:05;21.53;;;15.30;;
11024;SDS011;22890;51.820;8.682;2023-04-16T08:57:38;21.20;;;15.67;;
11024;SDS011;22890;51.820;8.682;2023-04-16T09:00:11;23.23;;;15.13;;
11024;SDS011;22890;51.820;8.682;2023-04-16T09:02:39;26.00;;;15.70;;
11024;SDS011;22890;51.820;8.682;2023-04-16T09:05:09;25.00;;;16.60;;
11024;SDS011;22890;51.820;8.682;2023-04-16T09:07:36;20.63;;;15.33;;
11024;SDS011;22890;51.820;8.682;2023-04-16T09:10:03;22.53;;;15.20;;
11024;SDS011;22890;51.820;8.682;2023-04-16T09:12:32;22.17;;;15.70;;
11024;SDS011;22890;51.820;8.682;2023-04-16T09:14:59;26.63;;;15.10;;
11024;SDS011;22890;51.820;8.682;2023-04-16T09:17:27;24.27;;;14.70;;
11024;SDS011;22890;51.820;8.682;2023-04-16T09:19:54;25.00;;;16.47;;
11024;SDS011;22890;51.820;8.682;2023-04-16T09:22:21;25.20;;;16.57;;
11024;SDS011;22890;51.820;8.682;2023-04-16T09:24:48;27.70;;;17.83;;
11024;SDS011;22890;51.820;8.682;2023-04-16T09:27:16;25.73;;;16.40;;
11024;SDS011;22890;51.820;8.682;2023-04-16T09:29:43;24.63;;;16.63;;
11024;SDS011;22890;51.820;8.682;2023-04-16T09:32:10;23.30;;;16.00;;
11024;SDS011;22890;51.820;8.682;2023-04-16T09:34:59;21.40;;;15.63;;
11024;SDS011;22890;51.820;8.682;2023-04-16T09:37:26;22.63;;;16.47;;
11024;SDS011;22890;51.820;8.682;2023-04-16T09:39:56;22.83;;;16.43;;
11024;SDS011;22890;51.820;8.682;2023-04-16T09:42:27;21.67;;;15.43;;
11024;SDS011;22890;51.820;8.682;2023-04-16T09:44:56;23.63;;;15.33;;
11024;SDS011;22890;51.820;8.682;2023-04-16T09:47:40;24.07;;;16.20;;
11024;SDS011;22890;51.820;8.682;2023-04-16T09:50:09;24.40;;;16.00;;
11024;SDS011;22890;51.820;8.682;2023-04-16T09:52:46;21.87;;;14.67;;
11024;SDS011;22890;51.820;8.682;2023-04-16T09:55:14;20.53;;;15.30;;
11024;SDS011;22890;51.820;8.682;2023-04-16T09:57:41;21.00;;;14.90;;
11024;SDS011;22890;51.820;8.682;2023-04-16T10:00:09;27.07;;;17.33;;
11024;SDS011;22890;51.820;8.682;2023-04-16T10:02:38;22.93;;;16.53;;
11024;SDS011;22890;51.820;8.682;2023-04-16T10:05:07;23.03;;;16.00;;
11024;SDS011;22890;51.820;8.682;2023-04-16T10:07:34;20.73;;;14.80;;
11024;SDS011;22890;51.820;8.682;2023-04-16T10:10:02;24.07;;;15.43;;
11024;SDS011;22890;51.820;8.682;2023-04-16T10:12:29;21.10;;;14.90;;
11024;SDS011;22890;51.820;8.682;2023-04-16T10:14:58;23.33;;;15.93;;
11024;SDS011;22890;51.820;8.682;2023-04-16T10:17:25;27.07;;;15.97;;
11024;SDS011;22890;51.820;8.682;2023-04-16T10:19:55;21.93;;;15.30;;
11024;SDS011;22890;51.820;8.682;2023-04-16T10:22:23;25.57;;;15.47;;
11024;SDS011;22890;51.820;8.682;2023-04-16T10:24:50;21.07;;;15.00;;
11024;SDS011;22890;51.820;8.682;2023-04-16T10:27:18;25.27;;;15.70;;
11024;SDS011;22890;51.820;8.682;2023-04-16T10:29:45;22.07;;;16.10;;
11024;SDS011;22890;51.820;8.682;2023-04-16T10:32:12;21.50;;;15.37;;
11024;SDS011;22890;51.820;8.682;2023-04-16T10:34:40;25.37;;;15.90;;
11024;SDS011;22890;51.820;8.682;2023-04-16T10:37:07;22.37;;;15.33;;
11024;SDS011;22890;51.820;8.682;2023-04-16T10:39:34;26.67;;;16.97;;
11024;SDS011;22890;51.820;8.682;2023-04-16T10:42:08;21.47;;;15.50;;
11024;SDS011;22890;51.820;8.682;2023-04-16T10:44:36;20.43;;;15.40;;
11024;SDS011;22890;51.820;8.682;2023-04-16T10:47:08;22.53;;;15.57;;
11024;SDS011;22890;51.820;8.682;2023-04-16T10:49:37;20.53;;;14.67;;
11024;SDS011;22890;51.820;8.682;2023-04-16T10:52:11;20.77;;;14.90;;
11024;SDS011;22890;51.820;8.682;2023-04-16T10:54:42;25.93;;;16.17;;
11024;SDS011;22890;51.820;8.682;2023-04-16T10:57:09;22.50;;;15.00;;
11024;SDS011;22890;51.820;8.682;2023-04-16T10:59:41;23.43;;;14.30;;
11024;SDS011;22890;51.820;8.682;2023-04-16T11:02:13;18.23;;;13.33;;
11024;SDS011;22890;51.820;8.682;2023-04-16T11:04:44;17.80;;;12.47;;
11024;SDS011;22890;51.820;8.682;2023-04-16T11:07:32;20.97;;;13.93;;
11024;SDS011;22890;51.820;8.682;2023-04-16T11:10:03;20.40;;;14.50;;
11024;SDS011;22890;51.820;8.682;2023-04-16T11:12:33;19.43;;;14.60;;
11024;SDS011;22890;51.820;8.682;2023-04-16T11:17:49;21.27;;;14.30;;
11024;SDS011;22890;51.820;8.682;2023-04-16T11:20:20;20.13;;;13.87;;
11024;SDS011;22890;51.820;8.682;2023-04-16T11:22:49;18.30;;;13.63;;
11024;SDS011;22890;51.820;8.682;2023-04-16T11:27:51;26.23;;;14.83;;
11024;SDS011;22890;51.820;8.682;2023-04-16T11:30:26;22.67;;;14.93;;
11024;SDS011;22890;51.820;8.682;2023-04-16T11:32:57;19.57;;;14.40;;
11024;SDS011;22890;51.820;8.682;2023-04-16T11:35:24;21.63;;;15.07;;
11024;SDS011;22890;51.820;8.682;2023-04-16T11:37:56;19.47;;;14.20;;
11024;SDS011;22890;51.820;8.682;2023-04-16T11:40:24;21.30;;;14.30;;
11024;SDS011;22890;51.820;8.682;2023-04-16T11:42:51;20.77;;;14.17;;
11024;SDS011;22890;51.820;8.682;2023-04-16T11:45:18;22.00;;;14.53;;
11024;SDS011;22890;51.820;8.682;2023-04-16T11:47:45;29.13;;;15.77;;
11024;SDS011;22890;51.820;8.682;2023-04-16T11:50:18;21.30;;;14.80;;
11024;SDS011;22890;51.820;8.682;2023-04-16T11:52:46;25.20;;;15.03;;
11024;SDS011;22890;51.820;8.682;2023-04-16T11:55:13;22.77;;;14.43;;
11024;SDS011;22890;51.820;8.682;2023-04-16T11:57:40;25.63;;;19.17;;
11024;SDS011;22890;51.820;8.682;2023-04-16T12:00:07;26.43;;;14.93;;
11024;SDS011;22890;51.820;8.682;2023-04-16T12:08:05;22.43;;;14.93;;
11024;SDS011;22890;51.820;8.682;2023-04-16T12:10:32;20.37;;;13.97;;
11024;SDS011;22890;51.820;8.682;2023-04-16T12:15:45;19.17;;;13.90;;
11024;SDS011;22890;51.820;8.682;2023-04-16T12:18:16;18.77;;;13.23;;
11024;SDS011;22890;51.820;8.682;2023-04-16T12:20:44;24.93;;;15.07;;
11024;SDS011;22890;51.820;8.682;2023-04-16T12:23:29;22.77;;;14.40;;
11024;SDS011;22890;51.820;8.682;2023-04-16T12:25:58;21.67;;;14.50;;
11024;SDS011;22890;51.820;8.682;2023-04-16T12:28:35;25.33;;;13.97;;
11024;SDS011;22890;51.820;8.682;2023-04-16T12:31:05;22.77;;;14.40;;
11024;SDS011;22890;51.820;8.682;2023-04-16T12:33:33;21.07;;;14.27;;
11024;SDS011;22890;51.820;8.682;2023-04-16T12:36:00;23.30;;;14.67;;
11024;SDS011;22890;51.820;8.682;2023-04-16T12:38:29;24.70;;;15.87;;
11024;SDS011;22890;51.820;8.682;2023-04-16T12:40:56;20.63;;;14.03;;
11024;SDS011;22890;51.820;8.682;2023-04-16T12:43:23;19.40;;;13.43;;
11024;SDS011;22890;51.820;8.682;2023-04-16T12:45:51;24.67;;;15.67;;
11024;SDS011;22890;51.820;8.682;2023-04-16T12:48:18;22.27;;;13.63;;
11024;SDS011;22890;51.820;8.682;2023-04-16T12:50:45;22.57;;;14.20;;
11024;SDS011;22890;51.820;8.682;2023-04-16T12:53:12;21.43;;;14.43;;
11024;SDS011;22890;51.820;8.682;2023-04-16T12:55:39;26.53;;;13.90;;
11024;SDS011;22890;51.820;8.682;2023-04-16T12:58:07;22.77;;;13.77;;
11024;SDS011;22890;51.820;8.682;2023-04-16T13:00:37;23.90;;;14.27;;
11024;SDS011;22890;51.820;8.682;2023-04-16T13:03:04;26.97;;;14.23;;
11024;SDS011;22890;51.820;8.682;2023-04-16T13:05:31;19.77;;;12.87;;
11024;SDS011;22890;51.820;8.682;2023-04-16T13:07:58;20.43;;;13.30;;
11024;SDS011;22890;51.820;8.682;2023-04-16T13:10:25;20.50;;;14.23;;
11024;SDS011;22890;51.820;8.682;2023-04-16T13:12:53;20.73;;;14.17;;
11024;SDS011;22890;51.820;8.682;2023-04-16T13:15:20;20.67;;;13.57;;
11024;SDS011;22890;51.820;8.682;2023-04-16T13:17:47;27.30;;;14.50;;
11024;SDS011;22890;51.820;8.682;2023-04-16T13:20:13;22.87;;;13.87;;
11024;SDS011;22890;51.820;8.682;2023-04-16T13:22:41;20.13;;;14.40;;
11024;SDS011;22890;51.820;8.682;2023-04-16T13:25:08;21.13;;;14.30;;
11024;SDS011;22890;51.820;8.682;2023-04-16T13:27:35;20.57;;;14.23;;
11024;SDS011;22890;51.820;8.682;2023-04-16T13:30:01;26.93;;;16.30;;
11024;SDS011;22890;51.820;8.682;2023-04-16T13:32:28;23.43;;;14.73;;
11024;SDS011;22890;51.820;8.682;2023-04-16T13:34:56;21.53;;;14.33;;
11024;SDS011;22890;51.820;8.682;2023-04-16T13:37:23;21.87;;;13.73;;
11024;SDS011;22890;51.820;8.682;2023-04-16T13:39:50;22.40;;;13.43;;
11024;SDS011;22890;51.820;8.682;2023-04-16T13:42:17;19.50;;;14.17;;
11024;SDS011;22890;51.820;8.682;2023-04-16T13:44:44;21.43;;;14.00;;
11024;SDS011;22890;51.820;8.682;2023-04-16T13:47:13;23.97;;;13.93;;
11024;SDS011;22890;51.820;8.682;2023-04-16T13:49:41;19.73;;;13.73;;
11024;SDS011;22890;51.820;8.682;2023-04-16T13:52:08;24.30;;;14.13;;
11024;SDS011;22890;51.820;8.682;2023-04-16T13:54:35;20.60;;;13.73;;
11024;SDS011;22890;51.820;8.682;2023-04-16T13:57:03;21.77;;;14.07;;
11024;SDS011;22890;51.820;8.682;2023-04-16T13:59:30;20.77;;;13.83;;
11024;SDS011;22890;51.820;8.682;2023-04-16T14:01:57;23.20;;;14.17;;
11024;SDS011;22890;51.820;8.682;2023-04-16T14:04:24;19.07;;;13.40;;
11024;SDS011;22890;51.820;8.682;2023-04-16T14:06:51;22.73;;;13.10;;
11024;SDS011;22890;51.820;8.682;2023-04-16T14:09:18;23.10;;;13.83;;
11024;SDS011;22890;51.820;8.682;2023-04-16T14:11:46;19.20;;;13.63;;
11024;SDS011;22890;51.820;8.682;2023-04-16T14:14:13;18.90;;;13.07;;
11024;SDS011;22890;51.820;8.682;2023-04-16T14:16:40;21.90;;;13.30;;
11024;SDS011;22890;51.820;8.682;2023-04-16T14:19:07;20.57;;;13.77;;
11024;SDS011;22890;51.820;8.682;2023-04-16T14:21:35;21.47;;;14.20;;
11024;SDS011;22890;51.820;8.682;2023-04-16T14:24:01;19.93;;;13.27;;
11024;SDS011;22890;51.820;8.682;2023-04-16T14:26:28;22.90;;;13.63;;
11024;SDS011;22890;51.820;8.682;2023-04-16T14:28:55;21.30;;;14.60;;
11024;SDS011;22890;51.820;8.682;2023-04-16T14:31:23;20.77;;;14.17;;
11024;SDS011;22890;51.820;8.682;2023-04-16T14:33:50;22.97;;;15.20;;
11024;SDS011;22890;51.820;8.682;2023-04-16T14:36:17;23.37;;;13.43;;
11024;SDS011;22890;51.820;8.682;2023-04-16T14:38:46;21.43;;;13.67;;
11024;SDS011;22890;51.820;8.682;2023-04-16T14:41:13;17.23;;;13.03;;